createdAt,value
2023-05-21T00:01:10.852Z,20.15
2023-05-21T00:03:42.154Z,20.16
2023-05-21T00:06:09.975Z,20.13
2023-05-21T00:08:36.982Z,20.13
2023-05-21T00:11:03.975Z,20.07
2023-05-21T00:13:30.971Z,20.08
2023-05-21T00:15:57.994Z,20.09
2023-05-21T00:18:28.556Z,20.03
2023-05-21T00:20:55.561Z,20.03
2023-05-21T00:23:22.560Z,19.98
2023-05-21T00:25:50.805Z,19.98
2023-05-21T00:28:17.726Z,19.93
2023-05-21T00:30:45.939Z,19.92
2023-05-21T00:33:14.690Z,19.91
2023-05-21T00:35:42.117Z,19.89
2023-05-21T00:38:10.271Z,19.89
2023-05-21T00:40:37.389Z,19.82
2023-05-21T00:43:05.200Z,19.87
2023-05-21T00:45:32.432Z,19.85
2023-05-21T00:47:59.899Z,19.79
2023-05-21T00:50:27.957Z,19.78
2023-05-21T00:52:55.059Z,19.71
2023-05-21T00:55:22.443Z,19.71
2023-05-21T00:57:49.908Z,19.69
2023-05-21T01:00:20.771Z,19.70
2023-05-21T01:02:48.137Z,19.67
2023-05-21T01:05:20.949Z,19.66
2023-05-21T01:07:48.528Z,19.61
2023-05-21T01:10:18.676Z,19.54
2023-05-21T01:12:47.911Z,19.50
2023-05-21T01:15:18.128Z,19.52
2023-05-21T01:17:46.311Z,19.49
2023-05-21T01:20:14.957Z,19.44
2023-05-21T01:22:54.337Z,19.39
2023-05-21T01:25:23.135Z,19.30
2023-05-21T01:27:53.751Z,19.23
2023-05-21T01:30:22.672Z,19.23
2023-05-21T01:33:05.464Z,19.28
2023-05-21T01:35:39.444Z,19.24
2023-05-21T01:38:16.362Z,19.24
2023-05-21T01:41:03.873Z,19.20
2023-05-21T01:43:37.026Z,19.13
2023-05-21T01:46:05.798Z,19.08
2023-05-21T01:48:34.971Z,19.13
2023-05-21T01:51:04.380Z,19.14
2023-05-21T01:53:31.913Z,19.11
2023-05-21T01:55:59.510Z,19.05
2023-05-21T01:58:26.670Z,18.99
2023-05-21T02:00:54.286Z,18.98
2023-05-21T02:03:22.113Z,18.94
2023-05-21T02:05:49.400Z,18.95
2023-05-21T02:08:16.402Z,18.90
2023-05-21T02:10:43.360Z,18.89
2023-05-21T02:13:10.764Z,18.88
2023-05-21T02:15:39.077Z,18.80
2023-05-21T02:18:06.225Z,18.78
2023-05-21T02:20:33.295Z,18.82
2023-05-21T02:23:00.569Z,18.81
2023-05-21T02:25:27.610Z,18.77
2023-05-21T02:27:56.897Z,18.79
2023-05-21T02:30:24.041Z,18.80
2023-05-21T02:32:51.032Z,18.73
2023-05-21T02:35:18.122Z,18.68
2023-05-21T02:37:45.251Z,18.69
2023-05-21T02:40:12.984Z,18.66
2023-05-21T02:42:41.508Z,18.64
2023-05-21T02:45:13.736Z,18.68
2023-05-21T02:47:43.047Z,18.65
2023-05-21T02:50:10.544Z,18.63
2023-05-21T02:52:53.036Z,18.58
2023-05-21T02:55:20.896Z,18.53
2023-05-21T02:57:48.426Z,18.50
2023-05-21T03:00:16.174Z,18.52
2023-05-21T03:02:43.973Z,18.55
2023-05-21T03:05:11.226Z,18.50
2023-05-21T03:07:38.744Z,18.51
2023-05-21T03:10:06.647Z,18.50
2023-05-21T03:12:33.774Z,18.41
2023-05-21T03:15:01.062Z,18.39
2023-05-21T03:17:28.381Z,18.36
2023-05-21T03:19:55.420Z,18.30
2023-05-21T03:22:22.451Z,18.29
2023-05-21T03:24:49.701Z,18.24
2023-05-21T03:27:18.471Z,18.32
2023-05-21T03:29:46.589Z,18.33
2023-05-21T03:32:14.078Z,18.28
2023-05-21T03:34:42.126Z,18.26
2023-05-21T03:37:09.099Z,18.29
2023-05-21T03:39:36.915Z,18.33
2023-05-21T03:42:06.181Z,18.29
2023-05-21T03:44:40.276Z,18.32
2023-05-21T03:47:33.253Z,18.33
2023-05-21T03:50:03.281Z,18.31
2023-05-21T03:52:30.407Z,18.29
2023-05-21T03:54:57.501Z,18.24
2023-05-21T03:57:24.553Z,18.30
2023-05-21T03:59:51.543Z,18.26
2023-05-21T04:02:18.625Z,18.21
2023-05-21T04:04:45.835Z,18.20
2023-05-21T04:07:14.734Z,18.16
2023-05-21T04:09:42.195Z,18.15
2023-05-21T04:12:09.572Z,18.06
2023-05-21T04:14:37.925Z,18.06
2023-05-21T04:17:05.501Z,18.05
2023-05-21T04:19:33.491Z,17.97
2023-05-21T04:22:01.928Z,17.97
2023-05-21T04:24:29.464Z,17.83
2023-05-21T04:27:02.797Z,17.85
2023-05-21T04:29:31.937Z,17.88
2023-05-21T04:31:59.117Z,17.85
2023-05-21T04:34:26.142Z,17.76
2023-05-21T04:36:54.123Z,17.78
2023-05-21T04:39:21.149Z,17.72
2023-05-21T04:41:50.890Z,17.74
2023-05-21T04:44:20.902Z,17.73
2023-05-21T04:46:49.115Z,17.69
2023-05-21T04:49:18.314Z,17.70
2023-05-21T04:51:45.446Z,17.71
2023-05-21T04:54:16.122Z,17.74
2023-05-21T04:56:47.870Z,17.70
2023-05-21T04:59:17.208Z,17.72
2023-05-21T05:01:44.754Z,17.77
2023-05-21T05:04:12.086Z,17.83
2023-05-21T05:06:39.377Z,17.83
2023-05-21T05:09:06.989Z,17.92
2023-05-21T05:11:35.097Z,17.83
2023-05-21T05:14:08.263Z,17.86
2023-05-21T05:16:39.355Z,17.84
2023-05-21T05:19:09.572Z,17.83
2023-05-21T05:21:37.940Z,17.85
2023-05-21T05:24:08.242Z,17.83
2023-05-21T05:26:36.568Z,17.78
2023-05-21T05:29:03.934Z,17.79
2023-05-21T05:31:31.311Z,17.84
2023-05-21T05:33:59.033Z,17.83
2023-05-21T05:36:26.322Z,17.82
2023-05-21T05:38:53.496Z,17.76
2023-05-21T05:41:21.132Z,17.74
2023-05-21T05:43:49.408Z,17.73
2023-05-21T05:46:20.814Z,17.80
2023-05-21T05:48:48.208Z,17.73
2023-05-21T05:51:15.535Z,17.73
2023-05-21T05:53:42.679Z,17.74
2023-05-21T05:56:11.252Z,17.67
2023-05-21T05:58:38.815Z,17.54
2023-05-21T06:01:13.814Z,17.46
2023-05-21T06:03:44.235Z,17.46
2023-05-21T06:06:14.864Z,17.55
2023-05-21T06:08:42.216Z,17.66
2023-05-21T06:11:10.039Z,17.69
2023-05-21T06:13:40.098Z,17.72
2023-05-21T06:16:09.783Z,17.79
2023-05-21T06:18:40.364Z,17.86
2023-05-21T06:21:07.804Z,17.92
2023-05-21T06:23:37.763Z,18.01
2023-05-21T06:26:05.529Z,18.03
2023-05-21T06:28:32.785Z,18.10
2023-05-21T06:31:00.598Z,18.08
2023-05-21T06:33:27.840Z,18.07
2023-05-21T06:35:55.162Z,18.11
2023-05-21T06:38:22.387Z,18.20
2023-05-21T06:40:50.196Z,18.23
2023-05-21T06:43:33.851Z,18.31
2023-05-21T06:46:30.086Z,18.43
2023-05-21T06:48:57.417Z,18.52
2023-05-21T06:51:25.157Z,18.65
2023-05-21T06:53:52.455Z,18.81
2023-05-21T06:56:19.593Z,18.93
2023-05-21T06:58:46.639Z,19.01
2023-05-21T07:01:14.010Z,19.12
2023-05-21T07:03:41.221Z,19.29
2023-05-21T07:06:09.409Z,19.40
2023-05-21T07:08:36.636Z,19.51
2023-05-21T07:11:04.225Z,19.61
2023-05-21T07:13:41.208Z,19.76
2023-05-21T07:16:08.717Z,19.84
2023-05-21T07:18:38.992Z,19.97
2023-05-21T07:21:06.107Z,20.09
2023-05-21T07:23:33.353Z,20.27
2023-05-21T07:26:00.738Z,20.59
2023-05-21T07:28:28.011Z,21.07
2023-05-21T07:30:55.295Z,21.75
2023-05-21T07:33:28.658Z,22.57
2023-05-21T07:35:55.995Z,23.30
2023-05-21T07:38:23.447Z,24.03
2023-05-21T07:40:50.750Z,24.76
2023-05-21T07:43:18.177Z,25.61
2023-05-21T07:45:45.159Z,26.20
2023-05-21T07:48:12.192Z,26.48
2023-05-21T07:50:50.338Z,25.91
2023-05-21T07:53:17.507Z,25.42
2023-05-21T07:55:48.106Z,24.92
2023-05-21T07:58:20.362Z,24.63
2023-05-21T08:00:48.459Z,24.42
2023-05-21T08:03:16.609Z,24.03
2023-05-21T08:05:51.092Z,23.76
2023-05-21T08:08:19.736Z,23.47
2023-05-21T08:10:47.973Z,22.96
2023-05-21T08:13:16.544Z,22.88
2023-05-21T08:15:43.858Z,22.54
2023-05-21T08:18:12.162Z,22.31
2023-05-21T08:20:39.276Z,21.99
2023-05-21T08:23:07.451Z,21.85
2023-05-21T08:25:41.147Z,21.96
2023-05-21T08:28:08.199Z,21.45
2023-05-21T08:30:35.302Z,21.45
2023-05-21T08:33:02.655Z,21.41
2023-05-21T08:35:32.391Z,21.17
2023-05-21T08:38:08.136Z,20.86
2023-05-21T08:40:42.155Z,20.89
2023-05-21T08:43:14.002Z,20.55
2023-05-21T08:45:55.165Z,20.69
2023-05-21T08:48:25.774Z,20.69
2023-05-21T08:50:54.122Z,20.65
2023-05-21T08:53:29.535Z,20.41
2023-05-21T08:55:58.120Z,20.39
2023-05-21T08:58:37.467Z,20.57
2023-05-21T09:01:05.794Z,20.69
2023-05-21T09:03:39.521Z,20.73
2023-05-21T09:06:11.597Z,20.74
2023-05-21T09:08:43.612Z,20.94
2023-05-21T09:11:30.367Z,21.12
2023-05-21T09:14:00.338Z,21.30
2023-05-21T09:16:50.990Z,21.19
2023-05-21T09:19:25.010Z,21.33
2023-05-21T09:21:52.998Z,21.26
2023-05-21T09:24:23.206Z,21.22
2023-05-21T09:26:51.514Z,21.21
2023-05-21T09:29:19.660Z,21.33
2023-05-21T09:31:47.038Z,21.42
2023-05-21T09:34:15.005Z,21.40
2023-05-21T09:36:47.191Z,21.52
2023-05-21T09:39:29.418Z,21.62
2023-05-21T09:41:58.179Z,21.66
2023-05-21T09:44:28.321Z,21.53
2023-05-21T09:46:59.798Z,21.34
2023-05-21T09:49:28.107Z,21.25
2023-05-21T09:51:59.574Z,21.23
2023-05-21T09:54:32.540Z,21.41
2023-05-21T09:57:03.028Z,21.40
2023-05-21T09:59:40.015Z,21.46
2023-05-21T10:02:23.619Z,21.24
2023-05-21T10:04:51.996Z,21.28
2023-05-21T10:07:26.130Z,21.33
2023-05-21T10:09:58.519Z,21.40
2023-05-21T10:12:26.408Z,21.41
2023-05-21T10:15:03.948Z,21.49
2023-05-21T10:17:31.574Z,21.55
2023-05-21T10:20:01.480Z,21.35
2023-05-21T10:22:28.517Z,21.41
2023-05-21T10:24:56.811Z,21.47
2023-05-21T10:27:23.962Z,21.65
2023-05-21T10:29:51.891Z,21.46
2023-05-21T10:32:22.194Z,21.46
2023-05-21T10:34:50.614Z,21.45
2023-05-21T10:37:18.197Z,21.26
2023-05-21T10:39:46.106Z,21.13
2023-05-21T10:42:27.707Z,20.84
2023-05-21T10:45:25.436Z,20.85
2023-05-21T10:48:34.383Z,20.78
2023-05-21T10:51:13.670Z,20.61
2023-05-21T10:53:49.725Z,20.62
2023-05-21T10:56:24.659Z,20.70
2023-05-21T10:59:15.401Z,20.82
2023-05-21T11:01:42.879Z,20.57
2023-05-21T11:04:12.392Z,20.66
2023-05-21T11:06:39.980Z,20.74
2023-05-21T11:09:14.073Z,20.59
2023-05-21T11:11:50.974Z,20.60
2023-05-21T11:14:35.697Z,20.57
2023-05-21T11:17:04.134Z,20.54
2023-05-21T11:19:47.614Z,20.60
2023-05-21T11:22:28.055Z,20.56
2023-05-21T11:24:56.375Z,20.68
2023-05-21T11:27:42.401Z,20.69
2023-05-21T11:30:15.003Z,20.77
2023-05-21T11:33:08.042Z,20.88
2023-05-21T11:36:11.644Z,20.79
2023-05-21T11:38:38.855Z,20.85
2023-05-21T11:41:05.940Z,20.71
2023-05-21T11:43:33.004Z,20.52
2023-05-21T11:46:00.342Z,20.45
2023-05-21T11:48:29.412Z,20.41
2023-05-21T11:50:58.160Z,20.41
2023-05-21T11:53:25.110Z,20.41
2023-05-21T11:55:57.589Z,20.30
2023-05-21T11:58:24.916Z,20.28
2023-05-21T12:00:52.182Z,20.28
2023-05-21T12:03:20.138Z,20.36
2023-05-21T12:05:50.180Z,20.38
2023-05-21T12:08:27.253Z,20.41
2023-05-21T12:10:59.666Z,20.28
2023-05-21T12:13:26.987Z,20.16
2023-05-21T12:15:57.056Z,20.21
2023-05-21T12:18:24.079Z,20.27
2023-05-21T12:20:54.201Z,20.37
2023-05-21T12:23:24.150Z,20.32
2023-05-21T12:25:52.400Z,20.27
2023-05-21T12:28:21.594Z,20.22
2023-05-21T12:30:48.770Z,20.27
2023-05-21T12:33:18.102Z,20.29
2023-05-21T12:35:50.774Z,20.18
2023-05-21T12:38:17.987Z,20.10
2023-05-21T12:40:45.870Z,20.11
2023-05-21T12:43:13.410Z,20.19
2023-05-21T12:45:41.021Z,20.14
2023-05-21T12:48:08.480Z,20.20
2023-05-21T12:50:39.906Z,20.34
2023-05-21T12:53:11.266Z,20.43
2023-05-21T12:55:38.302Z,20.40
2023-05-21T12:58:08.441Z,20.50
2023-05-21T13:00:36.267Z,20.59
2023-05-21T13:03:04.659Z,20.42
2023-05-21T13:05:31.874Z,20.44
2023-05-21T13:08:00.560Z,20.56
2023-05-21T13:10:27.633Z,20.47
2023-05-21T13:12:54.584Z,20.50
2023-05-21T13:15:21.547Z,20.41
2023-05-21T13:17:50.149Z,20.34
2023-05-21T13:20:26.567Z,20.23
2023-05-21T13:22:54.169Z,20.16
2023-05-21T13:25:24.810Z,20.09
2023-05-21T13:27:53.693Z,20.24
2023-05-21T13:30:22.110Z,20.38
2023-05-21T13:32:49.285Z,20.54
2023-05-21T13:35:17.655Z,20.59
2023-05-21T13:37:45.273Z,20.44
2023-05-21T13:40:17.041Z,20.36
2023-05-21T13:42:45.957Z,20.33
2023-05-21T13:45:15.112Z,20.30
2023-05-21T13:47:43.034Z,20.26
2023-05-21T13:50:10.538Z,20.40
2023-05-21T13:52:38.401Z,20.35
2023-05-21T13:55:06.091Z,20.35
2023-05-21T13:57:33.446Z,20.50
2023-05-21T14:00:01.310Z,20.52
2023-05-21T14:02:28.788Z,20.43
2023-05-21T14:04:55.897Z,20.48
2023-05-21T14:07:22.952Z,20.38
2023-05-21T14:09:50.171Z,20.40
2023-05-21T14:12:17.362Z,20.34
2023-05-21T14:14:44.693Z,20.34
2023-05-21T14:17:11.946Z,20.44
2023-05-21T14:19:38.860Z,20.29
2023-05-21T14:22:05.892Z,20.29
2023-05-21T14:24:33.105Z,20.27
2023-05-21T14:27:00.192Z,20.13
2023-05-21T14:29:27.213Z,20.28
2023-05-21T14:31:54.291Z,20.40
2023-05-21T14:34:21.327Z,20.52
2023-05-21T14:36:48.364Z,20.47
2023-05-21T14:39:15.607Z,20.49
2023-05-21T14:41:42.816Z,20.44
2023-05-21T14:44:09.855Z,20.47
2023-05-21T14:46:37.040Z,20.42
2023-05-21T14:49:04.493Z,20.49
2023-05-21T14:51:31.886Z,20.54
2023-05-21T14:53:59.200Z,20.49
2023-05-21T14:56:27.919Z,20.53
2023-05-21T14:58:55.601Z,20.62
2023-05-21T15:01:22.899Z,20.55
2023-05-21T15:03:50.085Z,20.52
2023-05-21T15:06:17.459Z,20.49
2023-05-21T15:08:44.538Z,20.47
2023-05-21T15:11:11.709Z,20.49
2023-05-21T15:13:39.122Z,20.43
2023-05-21T15:16:06.647Z,20.37
2023-05-21T15:18:33.759Z,20.43
2023-05-21T15:21:01.033Z,20.36
2023-05-21T15:23:28.168Z,20.29
2023-05-21T15:25:55.355Z,20.38
2023-05-21T15:28:23.248Z,20.22
2023-05-21T15:30:50.545Z,20.17
2023-05-21T15:33:17.755Z,20.12
2023-05-21T15:35:44.957Z,20.01
2023-05-21T15:38:12.309Z,20.10
2023-05-21T15:40:41.487Z,19.92
2023-05-21T15:43:08.503Z,19.98
2023-05-21T15:45:35.897Z,19.92
2023-05-21T15:48:03.073Z,20.06
2023-05-21T15:50:30.234Z,19.92
2023-05-21T15:52:57.272Z,19.86
2023-05-21T15:55:24.241Z,19.98
2023-05-21T15:57:51.263Z,20.09
2023-05-21T16:00:18.641Z,20.10
2023-05-21T16:02:45.690Z,20.19
2023-05-21T16:05:12.839Z,20.16
2023-05-21T16:07:39.760Z,20.23
2023-05-21T16:10:11.167Z,20.27
2023-05-21T16:12:38.457Z,20.18
2023-05-21T16:15:06.316Z,20.12
2023-05-21T16:17:33.447Z,20.22
2023-05-21T16:20:00.584Z,20.28
2023-05-21T16:22:27.593Z,20.33
2023-05-21T16:24:54.654Z,20.42
2023-05-21T16:27:21.711Z,20.45
2023-05-21T16:29:48.636Z,20.45
2023-05-21T16:32:16.142Z,20.48
2023-05-21T16:34:43.277Z,20.56
2023-05-21T16:37:10.339Z,20.63
2023-05-21T16:39:37.621Z,20.61
2023-05-21T16:42:04.838Z,20.47
2023-05-21T16:44:32.378Z,20.52
2023-05-21T16:47:00.515Z,20.56
2023-05-21T16:49:27.950Z,20.67
2023-05-21T16:51:55.103Z,20.49
2023-05-21T16:54:22.177Z,20.39
2023-05-21T16:56:49.634Z,20.39
2023-05-21T16:59:16.737Z,20.42
2023-05-21T17:01:44.111Z,20.51
2023-05-21T17:04:11.267Z,20.56
2023-05-21T17:06:38.263Z,20.58
2023-05-21T17:09:05.410Z,20.57
2023-05-21T17:11:32.983Z,20.40
2023-05-21T17:14:00.163Z,20.44
2023-05-21T17:16:27.270Z,20.39
2023-05-21T17:18:54.261Z,20.20
2023-05-21T17:21:21.506Z,19.94
2023-05-21T17:23:48.467Z,20.00
2023-05-21T17:26:15.582Z,19.98
2023-05-21T17:28:43.281Z,19.94
2023-05-21T17:31:10.440Z,19.91
2023-05-21T17:33:39.759Z,20.00
2023-05-21T17:36:06.908Z,20.08
2023-05-21T17:38:33.913Z,20.15
2023-05-21T17:41:00.960Z,20.11
2023-05-21T17:43:28.280Z,19.96
2023-05-21T17:45:55.509Z,19.97
2023-05-21T17:48:22.523Z,19.97
2023-05-21T17:50:49.602Z,20.02
2023-05-21T17:53:16.723Z,20.08
2023-05-21T17:55:44.029Z,20.13
2023-05-21T17:58:11.050Z,20.18
2023-05-21T18:00:38.031Z,20.28
2023-05-21T18:03:05.690Z,20.30
2023-05-21T18:05:32.724Z,20.39
2023-05-21T18:08:01.273Z,20.48
2023-05-21T18:10:28.805Z,20.53
2023-05-21T18:12:55.899Z,20.57
2023-05-21T18:15:22.952Z,20.61
2023-05-21T18:17:49.941Z,20.62
2023-05-21T18:20:17.054Z,20.66
2023-05-21T18:22:44.770Z,20.71
2023-05-21T18:25:11.790Z,20.76
2023-05-21T18:27:38.960Z,20.78
2023-05-21T18:30:07.223Z,20.79
2023-05-21T18:32:34.605Z,20.81
2023-05-21T18:35:01.634Z,20.86
2023-05-21T18:37:29.321Z,20.89
2023-05-21T18:39:56.349Z,20.94
2023-05-21T18:42:23.272Z,20.94
2023-05-21T18:44:52.995Z,20.96
2023-05-21T18:47:19.945Z,20.98
2023-05-21T18:49:46.902Z,21.00
2023-05-21T18:52:14.720Z,20.98
2023-05-21T18:54:41.676Z,20.95
2023-05-21T18:57:08.618Z,20.96
2023-05-21T18:59:35.744Z,20.97
2023-05-21T19:02:04.455Z,20.93
2023-05-21T19:04:31.494Z,20.91
2023-05-21T19:06:58.939Z,20.96
2023-05-21T19:09:26.072Z,20.97
2023-05-21T19:11:53.250Z,20.97
2023-05-21T19:14:21.134Z,20.97
2023-05-21T19:16:48.168Z,21.01
2023-05-21T19:19:15.272Z,21.02
2023-05-21T19:21:42.425Z,21.04
2023-05-21T19:24:09.446Z,21.02
2023-05-21T19:26:36.413Z,21.05
2023-05-21T19:29:03.403Z,21.04
2023-05-21T19:31:30.439Z,21.06
2023-05-21T19:33:57.532Z,21.05
2023-05-21T19:36:24.868Z,21.06
2023-05-21T19:38:51.858Z,21.07
2023-05-21T19:41:20.007Z,21.05
2023-05-21T19:43:47.077Z,20.98
2023-05-21T19:46:18.048Z,21.00
2023-05-21T19:48:46.432Z,21.00
2023-05-21T19:51:13.842Z,20.98
2023-05-21T19:53:45.929Z,20.97
2023-05-21T19:56:13.297Z,20.81
2023-05-21T19:58:40.981Z,20.71
2023-05-21T20:01:08.095Z,20.69
2023-05-21T20:03:37.962Z,20.69
2023-05-21T20:06:05.241Z,20.64
2023-05-21T20:08:32.207Z,20.59
2023-05-21T20:10:59.147Z,20.64
2023-05-21T20:13:26.421Z,20.68
2023-05-21T20:15:53.456Z,20.71
2023-05-21T20:18:21.675Z,20.74
2023-05-21T20:20:49.388Z,20.65
2023-05-21T20:23:16.617Z,20.60
2023-05-21T20:25:43.738Z,20.48
2023-05-21T20:28:10.820Z,20.40
2023-05-21T20:30:54.465Z,20.45
2023-05-21T20:33:25.601Z,20.29
2023-05-21T20:35:52.588Z,20.25
2023-05-21T20:38:21.208Z,20.27
2023-05-21T20:40:48.371Z,20.25
2023-05-21T20:43:15.469Z,20.26
2023-05-21T20:45:43.742Z,20.34
2023-05-21T20:48:12.205Z,20.41
2023-05-21T20:50:41.048Z,20.45
2023-05-21T20:53:09.129Z,20.51
2023-05-21T20:55:36.371Z,20.53
2023-05-21T20:58:07.346Z,20.55
2023-05-21T21:00:34.468Z,20.49
2023-05-21T21:03:02.294Z,20.45
2023-05-21T21:05:29.444Z,20.49
2023-05-21T21:07:56.629Z,20.58
2023-05-21T21:10:23.870Z,20.63
2023-05-21T21:12:50.953Z,20.66
2023-05-21T21:15:18.034Z,20.67
2023-05-21T21:17:45.378Z,20.71
2023-05-21T21:20:23.898Z,20.70
2023-05-21T21:22:51.457Z,20.71
2023-05-21T21:25:18.505Z,20.74
2023-05-21T21:27:45.558Z,20.72
2023-05-21T21:30:12.814Z,20.74
2023-05-21T21:32:41.264Z,20.70
2023-05-21T21:35:10.329Z,20.64
2023-05-21T21:37:37.264Z,20.61
2023-05-21T21:40:05.162Z,20.64
2023-05-21T21:42:32.155Z,20.61
2023-05-21T21:44:59.588Z,20.64
2023-05-21T21:47:26.757Z,20.64
2023-05-21T21:50:00.057Z,20.65
2023-05-21T21:52:27.730Z,20.65
2023-05-21T21:54:57.692Z,20.55
2023-05-21T21:57:27.569Z,20.58
2023-05-21T21:59:54.574Z,20.63
2023-05-21T22:02:25.531Z,20.63
2023-05-21T22:04:53.131Z,20.63
2023-05-21T22:07:21.084Z,20.64
2023-05-21T22:09:48.894Z,20.67
2023-05-21T22:12:18.817Z,20.72
2023-05-21T22:14:48.390Z,20.70
2023-05-21T22:17:18.071Z,20.71
2023-05-21T22:19:45.255Z,20.76
2023-05-21T22:22:12.390Z,20.77
2023-05-21T22:24:39.912Z,20.74
2023-05-21T22:27:09.035Z,20.74
2023-05-21T22:29:36.154Z,20.77
2023-05-21T22:32:03.354Z,20.78
2023-05-21T22:34:30.541Z,20.77
2023-05-21T22:36:57.535Z,20.75
2023-05-21T22:39:24.551Z,20.77
2023-05-21T22:41:51.930Z,20.78
2023-05-21T22:44:19.300Z,20.78
2023-05-21T22:46:47.839Z,20.77
2023-05-21T22:49:15.984Z,20.76
2023-05-21T22:51:45.092Z,20.79
2023-05-21T22:54:12.234Z,20.75
2023-05-21T22:56:39.167Z,20.78
2023-05-21T22:59:06.081Z,20.77
2023-05-21T23:01:33.460Z,20.75
2023-05-21T23:04:00.501Z,20.76
2023-05-21T23:06:27.615Z,20.76
2023-05-21T23:08:54.686Z,20.75
2023-05-21T23:11:22.393Z,20.70
2023-05-21T23:13:49.304Z,20.67
2023-05-21T23:16:19.451Z,20.70
2023-05-21T23:18:52.093Z,20.67
2023-05-21T23:21:19.237Z,20.66
2023-05-21T23:23:46.646Z,20.65
2023-05-21T23:26:13.619Z,20.64
2023-05-21T23:28:41.346Z,20.62
2023-05-21T23:31:08.316Z,20.61
2023-05-21T23:33:35.228Z,20.57
2023-05-21T23:36:02.211Z,20.57
2023-05-21T23:38:29.096Z,20.52
2023-05-21T23:40:56.304Z,20.52
2023-05-21T23:43:23.352Z,20.51
2023-05-21T23:45:50.373Z,20.49
2023-05-21T23:48:17.418Z,20.49
2023-05-21T23:50:44.429Z,20.49
2023-05-21T23:53:11.393Z,20.47
2023-05-21T23:55:38.305Z,20.46
2023-05-21T23:58:05.569Z,20.48
